createdAt,value
2022-12-14T05:02:42.111Z,0
2022-12-14T05:13:01.457Z,3.71
2022-12-14T05:18:11.742Z,3.69
2022-12-14T05:23:22.024Z,3.7
2022-12-14T05:28:32.284Z,3.71
2022-12-14T05:33:42.550Z,3.7
2022-12-14T05:38:52.827Z,3.7
2022-12-14T05:44:03.091Z,3.69
2022-12-14T05:49:13.378Z,3.69
2022-12-14T05:54:23.639Z,3.67
2022-12-14T05:59:33.911Z,3.69
2022-12-14T06:04:44.190Z,3.69
2022-12-14T06:09:54.461Z,3.69
2022-12-14T06:15:04.722Z,3.68
2022-12-14T06:20:14.990Z,3.68
2022-12-14T06:25:25.257Z,3.68
2022-12-14T06:30:35.541Z,3.67
2022-12-14T06:35:45.813Z,3.67
2022-12-14T06:40:56.087Z,3.67
2022-12-14T06:46:06.344Z,3.67
2022-12-14T06:51:16.627Z,3.66
2022-12-14T06:56:26.892Z,3.66
2022-12-14T07:01:37.153Z,3.63
2022-12-14T07:06:47.439Z,3.66
2022-12-14T07:11:57.700Z,3.66
2022-12-14T07:17:08.081Z,3.65
2022-12-14T07:22:18.349Z,3.65
2022-12-14T07:27:28.621Z,3.62
2022-12-14T07:32:38.886Z,3.65
2022-12-14T07:37:49.155Z,3.64
2022-12-14T07:42:59.431Z,3.63
2022-12-14T07:48:09.689Z,3.64
2022-12-14T07:53:19.959Z,3.62
2022-12-14T07:58:30.242Z,3.62
2022-12-14T08:03:40.510Z,3.61
2022-12-14T08:08:50.769Z,3.63
2022-12-14T08:14:01.034Z,3.62
2022-12-14T08:19:11.306Z,3.6
2022-12-14T08:24:21.757Z,3.59
2022-12-14T08:29:31.932Z,3.61
2022-12-14T08:34:42.309Z,3.6
2022-12-14T08:39:52.576Z,3.58
2022-12-14T08:45:02.855Z,3.58
2022-12-14T08:50:13.116Z,3.57
2022-12-14T08:55:23.394Z,3.59
2022-12-14T09:00:33.653Z,3.59
2022-12-14T09:05:43.924Z,3.6
2022-12-14T09:10:54.211Z,3.58
2022-12-14T09:16:04.483Z,3.57
2022-12-14T09:21:14.745Z,3.56
2022-12-14T09:26:25.010Z,3.58
2022-12-14T09:31:35.604Z,3.58
2022-12-14T09:36:45.869Z,3.58
2022-12-14T09:41:56.140Z,3.58
2022-12-14T09:47:06.411Z,3.58
2022-12-14T09:52:16.689Z,3.56
2022-12-14T09:57:26.975Z,3.56
2022-12-14T10:02:37.232Z,3.56
2022-12-14T10:07:47.492Z,3.57
2022-12-14T10:12:57.773Z,3.57
2022-12-14T10:18:08.035Z,3.57
2022-12-14T10:23:18.321Z,3.55
2022-12-14T10:28:28.593Z,3.56
2022-12-14T10:33:38.848Z,3.56
2022-12-14T10:38:49.915Z,3.55
2022-12-14T10:49:09.094Z,3.55
2022-12-14T10:54:19.352Z,3.54
2022-12-14T10:59:29.618Z,3.54
2022-12-14T11:04:39.893Z,3.54
2022-12-14T11:09:50.161Z,3.53
2022-12-14T11:15:00.574Z,3.52
2022-12-14T11:20:11.042Z,3.53
2022-12-14T11:25:21.524Z,3.53
2022-12-14T11:30:31.945Z,3.53
2022-12-14T11:35:42.220Z,3.52
2022-12-14T11:40:52.488Z,3.52
2022-12-14T11:46:02.763Z,3.52
2022-12-14T11:51:13.169Z,3.52
2022-12-14T11:56:23.657Z,3.52
2022-12-14T12:01:34.143Z,3.52
2022-12-14T12:06:44.629Z,3.51
2022-12-14T12:11:55.106Z,3.51
2022-12-14T12:17:05.576Z,3.5
2022-12-14T12:22:16.059Z,3.5
2022-12-14T12:27:26.341Z,3.49
2022-12-14T12:32:36.602Z,3.49
2022-12-14T12:37:47.009Z,3.47
2022-12-14T12:42:57.480Z,3.47
2022-12-14T12:48:07.978Z,3.47
2022-12-14T12:53:18.452Z,3.46
2022-12-14T12:58:27.726Z,3.46
2022-12-14T13:03:37.993Z,3.48
2022-12-14T13:08:48.264Z,3.48
2022-12-14T13:13:58.533Z,3.47
2022-12-14T13:19:08.816Z,3.48
2022-12-14T13:24:19.075Z,3.47
2022-12-14T13:29:29.351Z,3.46
2022-12-14T13:34:39.617Z,3.46
2022-12-14T13:39:49.891Z,3.46
2022-12-14T13:45:00.158Z,3.47
2022-12-14T13:50:10.417Z,3.46
2022-12-14T13:55:20.704Z,3.45
2022-12-14T14:00:31.137Z,3.45
2022-12-14T14:05:41.423Z,3.43
2022-12-14T14:10:51.685Z,3.44
2022-12-14T14:16:02.076Z,3.44
2022-12-14T14:21:12.568Z,3.44
2022-12-14T14:26:23.032Z,3.43
2022-12-14T14:31:33.441Z,3.42
2022-12-14T14:36:43.730Z,3.42
2022-12-14T14:41:53.994Z,3.42
2022-12-14T14:47:04.274Z,3.41
2022-12-14T14:52:14.533Z,3.42
2022-12-14T14:57:23.800Z,3.4
2022-12-14T15:02:34.081Z,3.4
2022-12-14T15:07:44.659Z,3.38
2022-12-14T15:12:54.928Z,3.4
2022-12-14T15:18:05.206Z,3.39
2022-12-14T15:23:15.470Z,3.39
2022-12-14T15:28:25.735Z,3.36
2022-12-14T15:33:36.018Z,3.38
2022-12-14T15:38:46.282Z,3.38
2022-12-14T15:43:56.557Z,3.38
2022-12-14T15:49:06.824Z,3.38
2022-12-14T15:54:17.098Z,3.37
2022-12-14T15:59:27.356Z,3.56
2022-12-14T16:04:37.635Z,3.59
2022-12-14T16:09:47.910Z,3.6
2022-12-14T16:14:58.976Z,3.63
2022-12-14T16:25:18.236Z,3.67
2022-12-14T16:30:28.514Z,3.66
2022-12-14T16:35:38.782Z,3.7
2022-12-14T16:40:49.047Z,3.72
2022-12-14T16:45:59.340Z,3.69
2022-12-14T16:51:09.599Z,3.73
2022-12-14T16:56:19.871Z,3.74
2022-12-14T17:01:30.138Z,3.76
2022-12-14T17:06:40.427Z,3.76
2022-12-14T17:11:50.692Z,3.78
2022-12-14T17:17:00.971Z,3.77
2022-12-14T17:22:11.226Z,3.8
2022-12-14T17:27:21.512Z,3.81
2022-12-14T17:32:31.773Z,3.81
2022-12-14T17:37:42.043Z,3.83
2022-12-14T17:42:52.325Z,3.83
2022-12-14T17:48:02.602Z,3.85
2022-12-14T17:53:12.862Z,3.87
2022-12-14T17:58:23.139Z,3.88
2022-12-14T18:03:33.414Z,3.9
2022-12-14T18:08:43.682Z,3.9
2022-12-14T18:13:53.961Z,3.92
2022-12-14T18:19:04.223Z,3.92
2022-12-14T18:24:14.492Z,3.93
2022-12-14T18:29:24.940Z,3.95
2022-12-14T18:34:35.213Z,3.96
2022-12-14T18:39:45.489Z,3.96
2022-12-14T18:44:55.752Z,3.98
2022-12-14T18:50:06.030Z,3.98
2022-12-14T18:55:16.306Z,4
2022-12-14T19:00:26.575Z,4.01
2022-12-14T19:05:36.845Z,4.03
2022-12-14T19:10:47.121Z,4.03
2022-12-14T19:15:57.394Z,4.05
2022-12-14T19:21:07.670Z,4.05
2022-12-14T19:26:17.923Z,4.07
2022-12-14T19:31:28.199Z,4.07
2022-12-14T19:36:38.801Z,4.09
2022-12-14T19:41:49.065Z,4.1
2022-12-14T19:46:59.342Z,4.11
2022-12-14T19:52:09.601Z,4.12
2022-12-14T19:57:19.888Z,4.13
2022-12-14T20:02:30.150Z,4.13
2022-12-14T20:07:40.416Z,4.15
2022-12-14T20:12:50.688Z,4.16
2022-12-14T20:18:00.981Z,4.16
2022-12-14T20:23:11.250Z,4.18
2022-12-14T20:28:21.508Z,4.18
2022-12-14T20:33:31.780Z,4.19
2022-12-14T20:38:42.058Z,4.21
2022-12-14T20:43:53.115Z,4.23
2022-12-14T20:54:12.521Z,4.24
2022-12-14T20:59:22.998Z,4.39
2022-12-14T21:04:33.491Z,4.4
2022-12-14T21:09:43.891Z,4.41
